createdAt,value
2023-02-19T00:00:07.791Z,19.06
2023-02-19T00:00:17.833Z,19.05
2023-02-19T00:00:27.797Z,19.02
2023-02-19T00:00:37.824Z,19.05
2023-02-19T00:00:47.805Z,19.07
2023-02-19T00:00:57.801Z,19.06
2023-02-19T00:01:08.145Z,19.02
2023-02-19T00:01:17.819Z,19.06
2023-02-19T00:01:27.781Z,19.07
2023-02-19T00:01:37.821Z,19.02
2023-02-19T00:01:47.779Z,19.05
2023-02-19T00:01:57.819Z,19.07
2023-02-19T00:02:07.778Z,19.01
2023-02-19T00:02:17.818Z,19.02
2023-02-19T00:02:27.787Z,19.05
2023-02-19T00:02:37.808Z,19.05
2023-02-19T00:02:47.777Z,19.06
2023-02-19T00:02:57.816Z,19.06
2023-02-19T00:03:07.801Z,19.02
2023-02-19T00:03:17.825Z,19.05
2023-02-19T00:03:27.808Z,19.06
2023-02-19T00:03:37.902Z,19.07
2023-02-19T00:03:47.833Z,19.05
2023-02-19T00:03:57.795Z,19.02
2023-02-19T00:04:07.776Z,19.02
2023-02-19T00:04:17.801Z,19.06
2023-02-19T00:04:27.765Z,19.02
2023-02-19T00:04:37.816Z,19.05
2023-02-19T00:04:47.777Z,19.05
2023-02-19T00:04:57.845Z,19.05
2023-02-19T00:05:07.773Z,19.06
2023-02-19T00:05:17.796Z,19.05
2023-02-19T00:05:27.756Z,19.02
2023-02-19T00:05:37.790Z,19.05
2023-02-19T00:05:47.753Z,19.01
2023-02-19T00:05:57.791Z,19.05
2023-02-19T00:06:07.750Z,19.06
2023-02-19T00:06:17.782Z,19.06
2023-02-19T00:06:27.767Z,18.99
2023-02-19T00:06:37.778Z,19.02
2023-02-19T00:06:47.748Z,19.06
2023-02-19T00:06:57.792Z,19.05
2023-02-19T00:07:07.754Z,19.01
2023-02-19T00:07:27.757Z,19.01
2023-02-19T00:07:37.762Z,19.05
2023-02-19T00:07:47.736Z,19.06
2023-02-19T00:07:57.781Z,19.01
2023-02-19T00:08:07.736Z,19.05
2023-02-19T00:08:17.768Z,19.01
2023-02-19T00:08:27.742Z,19.02
2023-02-19T00:08:37.748Z,19.02
2023-02-19T00:08:47.732Z,19.02
2023-02-19T00:08:57.774Z,19.05
2023-02-19T00:09:07.735Z,19.02
2023-02-19T00:09:17.744Z,18.97
2023-02-19T00:09:27.734Z,19.01
2023-02-19T00:09:37.763Z,18.99
2023-02-19T00:09:47.721Z,19.02
2023-02-19T00:09:57.755Z,19.06
2023-02-19T00:10:07.722Z,19.02
2023-02-19T00:10:17.771Z,19.06
2023-02-19T00:10:27.722Z,19.02
2023-02-19T00:10:37.757Z,19.01
2023-02-19T00:10:47.720Z,19.05
2023-02-19T00:10:57.748Z,19.05
2023-02-19T00:11:07.969Z,19.09
2023-02-19T00:11:17.733Z,19.05
2023-02-19T00:11:27.755Z,19.07
2023-02-19T00:11:37.749Z,19.05
2023-02-19T00:11:47.937Z,19.05
2023-02-19T00:11:57.744Z,19.06
2023-02-19T00:12:07.709Z,19.07
2023-02-19T00:12:17.726Z,19.01
2023-02-19T00:12:27.708Z,19.06
2023-02-19T00:12:37.720Z,19.05
2023-02-19T00:12:47.704Z,19.02
2023-02-19T00:12:57.720Z,19.06
2023-02-19T00:13:07.711Z,19.02
2023-02-19T00:13:17.716Z,19.01
2023-02-19T00:13:27.699Z,19.05
2023-02-19T00:13:37.732Z,19.02
2023-02-19T00:13:47.697Z,19.01
2023-02-19T00:13:57.735Z,19.01
2023-02-19T00:14:07.701Z,19.02
2023-02-19T00:14:17.715Z,19.02
2023-02-19T00:14:27.701Z,19.02
2023-02-19T00:14:37.723Z,19.02
2023-02-19T00:14:47.690Z,19.05
2023-02-19T00:14:57.721Z,19.07
2023-02-19T00:15:07.686Z,19.05
2023-02-19T00:15:17.714Z,19.05
2023-02-19T00:15:27.714Z,19.02
2023-02-19T00:15:37.760Z,19.05
2023-02-19T00:15:47.716Z,19.01
2023-02-19T00:15:57.765Z,19.06
2023-02-19T00:16:07.738Z,19.05
2023-02-19T00:16:17.711Z,19.05
2023-02-19T00:16:27.676Z,19.05
2023-02-19T00:16:37.705Z,18.99
2023-02-19T00:16:47.682Z,19.02
2023-02-19T00:16:57.691Z,19.05
2023-02-19T00:17:07.675Z,19.02
2023-02-19T00:17:17.722Z,19.02
2023-02-19T00:17:27.676Z,19.06
2023-02-19T00:17:37.703Z,19.01
2023-02-19T00:17:47.690Z,19.02
2023-02-19T00:17:57.697Z,19.01
2023-02-19T00:18:07.683Z,19.02
2023-02-19T00:18:17.681Z,19.05
2023-02-19T00:18:27.665Z,19.05
2023-02-19T00:18:37.700Z,19.02
2023-02-19T00:18:47.679Z,19.05
2023-02-19T00:18:57.699Z,19.06
2023-02-19T00:19:07.678Z,19.02
2023-02-19T00:19:17.674Z,19.02
2023-02-19T00:19:27.676Z,19.05
2023-02-19T00:19:37.672Z,19.02
2023-02-19T00:19:47.692Z,19.07
2023-02-19T00:19:57.655Z,19.02
2023-02-19T00:20:07.670Z,19.06
2023-02-19T00:20:17.656Z,19.05
2023-02-19T00:20:27.694Z,19.05
2023-02-19T00:20:37.651Z,19.06
2023-02-19T00:20:47.675Z,19.02
2023-02-19T00:20:57.651Z,19.06
2023-02-19T00:21:08.072Z,19.01
2023-02-19T00:21:17.648Z,19.02
2023-02-19T00:21:27.664Z,19.01
2023-02-19T00:21:37.649Z,19.06
2023-02-19T00:21:47.675Z,18.99
2023-02-19T00:21:57.648Z,19.02
2023-02-19T00:22:07.675Z,19.02
2023-02-19T00:22:17.641Z,19.02
2023-02-19T00:22:27.669Z,19.01
2023-02-19T00:22:37.637Z,19.02
2023-02-19T00:22:47.679Z,19.02
2023-02-19T00:22:57.634Z,19.02
2023-02-19T00:23:07.667Z,19.02
2023-02-19T00:23:17.653Z,19.02
2023-02-19T00:23:27.649Z,19.02
2023-02-19T00:23:37.632Z,19.02
2023-02-19T00:23:47.648Z,19.02
2023-02-19T00:23:57.656Z,19.05
2023-02-19T00:24:07.646Z,19.06
2023-02-19T00:24:17.655Z,19.02
2023-02-19T00:24:27.649Z,19.05
2023-02-19T00:24:37.639Z,19.02
2023-02-19T00:24:57.623Z,19.02
2023-02-19T00:25:07.643Z,19.02
2023-02-19T00:25:17.616Z,19.02
2023-02-19T00:25:27.639Z,19.02
2023-02-19T00:25:37.620Z,19.01
2023-02-19T00:25:47.649Z,19.06
2023-02-19T00:26:03.184Z,19.01
2023-02-19T00:26:18.629Z,19.05
2023-02-19T00:26:23.421Z,19.02
2023-02-19T00:26:33.017Z,19.02
2023-02-19T00:26:43.036Z,19.05
2023-02-19T00:26:53.048Z,19.02
2023-02-19T00:27:02.998Z,19.01
2023-02-19T00:27:22.081Z,19.01
2023-02-19T00:27:33.039Z,19.05
2023-02-19T00:27:42.993Z,19.02
2023-02-19T00:27:53.023Z,19.01
2023-02-19T00:28:02.994Z,19.01
2023-02-19T00:28:13.038Z,18.99
2023-02-19T00:28:23.002Z,19.01
2023-02-19T00:28:33.022Z,19.02
2023-02-19T00:28:43.001Z,19.01
2023-02-19T00:28:53.019Z,19.02
2023-02-19T00:29:03.025Z,19.01
2023-02-19T00:29:13.021Z,19.01
2023-02-19T00:29:22.983Z,18.99
2023-02-19T00:29:33.018Z,18.99
2023-02-19T00:29:52.995Z,19.01
2023-02-19T00:30:03.014Z,18.97
2023-02-19T00:30:13.045Z,19.01
2023-02-19T00:30:23.031Z,19.01
2023-02-19T00:30:33.030Z,18.99
2023-02-19T00:30:43.002Z,19.02
2023-02-19T00:30:53.041Z,19.02
2023-02-19T00:31:03.008Z,18.99
2023-02-19T00:31:13.600Z,19.05
2023-02-19T00:31:23.104Z,19.02
2023-02-19T00:31:33.594Z,19.05
2023-02-19T00:31:43.111Z,18.99
2023-02-19T00:31:53.064Z,19.01
2023-02-19T00:32:02.976Z,19.02
2023-02-19T00:32:23.023Z,19.06
2023-02-19T00:32:32.999Z,19.02
2023-02-19T00:32:42.962Z,19.06
2023-02-19T00:32:52.990Z,19.02
2023-02-19T00:33:02.968Z,19.02
2023-02-19T00:33:12.975Z,19.01
2023-02-19T00:33:22.954Z,18.97
2023-02-19T00:33:32.988Z,19.01
2023-02-19T00:33:42.961Z,19.01
2023-02-19T00:33:52.969Z,19.05
2023-02-19T00:34:02.960Z,19.01
2023-02-19T00:34:12.999Z,18.99
2023-02-19T00:34:22.969Z,19.02
2023-02-19T00:34:42.950Z,19.06
2023-02-19T00:34:52.980Z,19.05
2023-02-19T00:35:02.949Z,19.01
2023-02-19T00:35:12.978Z,19.06
2023-02-19T00:35:22.995Z,19.01
2023-02-19T00:35:32.972Z,19.01
2023-02-19T00:35:42.942Z,19.01
2023-02-19T00:35:52.957Z,19.01
2023-02-19T00:36:02.940Z,18.99
2023-02-19T00:36:12.956Z,19.02
2023-02-19T00:36:22.938Z,19.02
2023-02-19T00:36:32.950Z,18.99
2023-02-19T00:36:42.960Z,19.01
2023-02-19T00:36:52.951Z,18.99
2023-02-19T00:37:12.969Z,19.02
2023-02-19T00:37:22.940Z,18.97
2023-02-19T00:37:32.963Z,19.01
2023-02-19T00:37:42.934Z,18.97
2023-02-19T00:37:52.940Z,18.97
2023-02-19T00:38:02.926Z,19.02
2023-02-19T00:38:12.944Z,18.99
2023-02-19T00:38:22.928Z,19.01
2023-02-19T00:38:32.958Z,18.96
2023-02-19T00:38:42.927Z,18.99
2023-02-19T00:38:52.953Z,18.97
2023-02-19T00:39:02.917Z,18.99
2023-02-19T00:39:12.965Z,18.99
2023-02-19T00:39:22.917Z,18.97
2023-02-19T00:39:42.950Z,18.97
2023-02-19T00:39:52.948Z,18.99
2023-02-19T00:40:02.922Z,19.01
2023-02-19T00:40:12.948Z,18.99
2023-02-19T00:40:22.909Z,19.01
2023-02-19T00:40:32.949Z,18.99
2023-02-19T00:40:42.913Z,18.99
2023-02-19T00:40:52.954Z,18.99
2023-02-19T00:41:02.904Z,19.01
2023-02-19T00:41:12.936Z,19.01
2023-02-19T00:41:22.959Z,19.02
2023-02-19T00:41:32.955Z,19.01
2023-02-19T00:41:42.911Z,19.01
2023-02-19T00:42:02.899Z,18.99
2023-02-19T00:42:12.915Z,19.01
2023-02-19T00:42:22.905Z,18.99
2023-02-19T00:42:32.931Z,19.02
2023-02-19T00:42:42.893Z,19.02
2023-02-19T00:42:52.912Z,19.02
2023-02-19T00:43:02.897Z,19.05
2023-02-19T00:43:12.918Z,18.97
2023-02-19T00:43:22.893Z,18.97
2023-02-19T00:43:32.925Z,18.97
2023-02-19T00:43:42.912Z,18.97
2023-02-19T00:43:52.972Z,18.99
2023-02-19T00:44:02.887Z,18.97
2023-02-19T00:44:12.905Z,19.01
2023-02-19T00:44:32.913Z,19.01
2023-02-19T00:44:42.883Z,18.99
2023-02-19T00:44:52.913Z,19.02
2023-02-19T00:45:02.881Z,19.01
2023-02-19T00:45:12.908Z,19.01
2023-02-19T00:45:22.879Z,18.97
2023-02-19T00:45:32.908Z,18.99
2023-02-19T00:45:42.888Z,18.99
2023-02-19T00:45:52.892Z,18.99
2023-02-19T00:46:02.980Z,18.99
2023-02-19T00:46:12.942Z,18.97
2023-02-19T00:46:22.972Z,19.01
2023-02-19T00:46:32.997Z,18.99
2023-02-19T00:46:42.984Z,19.01
2023-02-19T00:47:02.872Z,19.01
2023-02-19T00:47:12.895Z,18.99
2023-02-19T00:47:22.864Z,18.99
2023-02-19T00:47:32.882Z,18.99
2023-02-19T00:47:42.863Z,18.97
2023-02-19T00:47:52.876Z,18.99
2023-02-19T00:48:02.863Z,18.97
2023-02-19T00:48:12.899Z,19.02
2023-02-19T00:48:22.857Z,18.97
2023-02-19T00:48:32.893Z,18.99
2023-02-19T00:48:42.869Z,18.99
2023-02-19T00:48:52.878Z,18.99
2023-02-19T00:49:02.872Z,19.01
2023-02-19T00:49:12.888Z,19.01
2023-02-19T00:49:32.882Z,18.99
2023-02-19T00:49:42.848Z,19.01
2023-02-19T00:49:52.871Z,18.96
2023-02-19T00:50:02.853Z,19.01
2023-02-19T00:50:12.888Z,18.99
2023-02-19T00:50:22.846Z,19.05
2023-02-19T00:50:32.893Z,19.01
2023-02-19T00:50:42.859Z,18.99
2023-02-19T00:50:52.857Z,18.97
2023-02-19T00:51:02.845Z,18.99
2023-02-19T00:51:12.886Z,19.02
2023-02-19T00:51:22.840Z,19.05
2023-02-19T00:51:32.861Z,19.02
2023-02-19T00:51:42.842Z,18.99
2023-02-19T00:52:02.833Z,19.01
2023-02-19T00:52:12.896Z,19.01
2023-02-19T00:52:22.832Z,18.96
2023-02-19T00:52:32.842Z,18.97
2023-02-19T00:52:42.830Z,18.99
2023-02-19T00:52:52.844Z,18.97
2023-02-19T00:53:02.825Z,18.99
2023-02-19T00:53:12.842Z,18.96
2023-02-19T00:53:22.824Z,19.02
2023-02-19T00:53:32.841Z,18.99
2023-02-19T00:53:42.838Z,18.97
2023-02-19T00:53:52.853Z,18.99
2023-02-19T00:54:02.833Z,18.97
2023-02-19T00:54:22.829Z,18.99
2023-02-19T00:54:32.834Z,18.97
2023-02-19T00:54:42.820Z,18.96
2023-02-19T00:54:52.842Z,18.99
2023-02-19T00:55:02.815Z,19.01
2023-02-19T00:55:12.846Z,18.99
2023-02-19T00:55:22.809Z,18.99
2023-02-19T00:55:32.829Z,18.99
2023-02-19T00:55:42.824Z,18.99
2023-02-19T00:55:52.841Z,19.01
2023-02-19T00:56:02.822Z,19.02
2023-02-19T00:56:12.839Z,18.96
2023-02-19T00:56:22.804Z,19.02
2023-02-19T00:56:32.858Z,18.97
2023-02-19T00:56:52.815Z,18.97
2023-02-19T00:57:02.801Z,19.01
2023-02-19T00:57:12.837Z,19.01
2023-02-19T00:57:22.800Z,19.01
2023-02-19T00:57:32.810Z,19.01
2023-02-19T00:57:42.794Z,19.01
2023-02-19T00:57:52.842Z,19.01
2023-02-19T00:58:02.812Z,19.01
2023-02-19T00:58:12.817Z,18.99
2023-02-19T00:58:22.794Z,18.99
2023-02-19T00:58:32.824Z,19.01
2023-02-19T00:58:42.788Z,19.01
2023-02-19T00:58:52.818Z,19.01
2023-02-19T00:59:02.791Z,18.99
2023-02-19T00:59:22.782Z,18.97
2023-02-19T00:59:32.815Z,19.05
2023-02-19T00:59:42.782Z,18.99
2023-02-19T00:59:52.798Z,19.02
2023-02-19T01:00:02.785Z,19.01
2023-02-19T01:00:12.813Z,19.01
2023-02-19T01:00:22.775Z,19.01
2023-02-19T01:00:32.809Z,18.99
2023-02-19T01:00:42.776Z,18.99
2023-02-19T01:00:52.804Z,18.99
2023-02-19T01:01:02.773Z,18.97
2023-02-19T01:01:12.807Z,18.97
2023-02-19T01:01:22.815Z,19.01
2023-02-19T01:01:32.828Z,18.97
2023-02-19T01:01:42.804Z,18.97
2023-02-19T01:01:52.781Z,18.99
2023-02-19T01:02:02.784Z,18.97
2023-02-19T01:02:12.782Z,18.97
2023-02-19T01:02:22.780Z,18.96
2023-02-19T01:02:32.761Z,18.99
2023-02-19T01:02:42.782Z,18.97
2023-02-19T01:02:52.760Z,18.99
2023-02-19T01:03:02.795Z,18.99
2023-02-19T01:03:12.766Z,18.99
2023-02-19T01:03:22.786Z,18.99
2023-02-19T01:03:32.756Z,18.96
2023-02-19T01:03:42.784Z,18.99
2023-02-19T01:03:52.754Z,19.01
2023-02-19T01:04:04.820Z,18.97
2023-02-19T01:04:22.833Z,18.99
2023-02-19T01:04:32.805Z,18.99
2023-02-19T01:04:42.790Z,19.01
2023-02-19T01:04:52.755Z,18.97
2023-02-19T01:05:02.837Z,19.01
2023-02-19T01:05:12.741Z,18.96
2023-02-19T01:05:22.756Z,18.97
2023-02-19T01:05:32.738Z,19.01
2023-02-19T01:05:42.755Z,18.97
2023-02-19T01:05:52.765Z,18.94
2023-02-19T01:06:02.769Z,18.97
2023-02-19T01:06:12.739Z,18.97
2023-02-19T01:06:22.775Z,18.99
2023-02-19T01:06:32.752Z,18.97
2023-02-19T01:06:52.755Z,18.99
2023-02-19T01:07:02.761Z,18.97
2023-02-19T01:07:12.726Z,18.99
2023-02-19T01:07:22.760Z,18.97
2023-02-19T01:07:32.731Z,18.96
2023-02-19T01:07:42.762Z,18.99
2023-02-19T01:07:52.723Z,18.96
2023-02-19T01:08:02.744Z,19.01
2023-02-19T01:08:12.722Z,18.97
2023-02-19T01:08:22.752Z,19.02
2023-02-19T01:08:32.720Z,18.97
2023-02-19T01:08:42.740Z,19.01
2023-02-19T01:08:52.723Z,18.97
2023-02-19T01:09:12.718Z,18.96
2023-02-19T01:09:22.729Z,18.99
2023-02-19T01:09:32.712Z,18.96
2023-02-19T01:09:42.733Z,18.96
2023-02-19T01:09:52.716Z,18.99
2023-02-19T01:10:02.724Z,18.93
2023-02-19T01:10:12.707Z,18.97
2023-02-19T01:10:22.736Z,18.97
2023-02-19T01:10:32.704Z,18.97
2023-02-19T01:10:42.720Z,18.97
2023-02-19T01:10:52.704Z,18.97
2023-02-19T01:11:02.740Z,18.99
2023-02-19T01:11:13.006Z,18.97
2023-02-19T01:11:22.730Z,18.96
2023-02-19T01:11:42.728Z,18.97
2023-02-19T01:11:52.709Z,18.96
2023-02-19T01:12:02.736Z,18.97
2023-02-19T01:12:12.694Z,18.96
2023-02-19T01:12:22.727Z,18.97
2023-02-19T01:12:32.692Z,18.96
2023-02-19T01:12:42.722Z,18.97
2023-02-19T01:12:52.690Z,18.94
2023-02-19T01:13:02.720Z,18.97
2023-02-19T01:13:12.693Z,18.96
2023-02-19T01:13:22.720Z,18.96
2023-02-19T01:13:32.683Z,18.94
2023-02-19T01:13:42.717Z,18.97
2023-02-19T01:13:52.683Z,18.97
2023-02-19T01:14:12.684Z,18.97
2023-02-19T01:14:22.717Z,18.94
2023-02-19T01:14:32.679Z,18.96
2023-02-19T01:14:42.727Z,18.96
2023-02-19T01:14:52.673Z,18.96
2023-02-19T01:15:02.693Z,18.94
2023-02-19T01:15:12.672Z,18.96
2023-02-19T01:15:29.513Z,18.97
2023-02-19T01:15:34.193Z,18.94
2023-02-19T01:15:44.246Z,18.99
2023-02-19T01:15:54.220Z,18.94
2023-02-19T01:16:04.257Z,18.96
2023-02-19T01:16:14.277Z,18.96
2023-02-19T01:16:24.319Z,18.96
2023-02-19T01:16:34.194Z,18.99
2023-02-19T01:16:44.214Z,18.96
2023-02-19T01:16:54.184Z,18.96
2023-02-19T01:17:04.226Z,18.94
2023-02-19T01:17:14.179Z,18.96
2023-02-19T01:17:24.219Z,18.96
2023-02-19T01:17:34.179Z,18.97
2023-02-19T01:17:44.208Z,18.94
2023-02-19T01:17:54.176Z,18.96
2023-02-19T01:18:04.187Z,18.97
2023-02-19T01:18:14.173Z,18.96
2023-02-19T01:18:24.247Z,18.97
2023-02-19T01:18:34.169Z,18.97
2023-02-19T01:18:44.193Z,18.97
2023-02-19T01:18:54.171Z,18.96
2023-02-19T01:19:04.180Z,18.96
2023-02-19T01:19:14.169Z,18.96
2023-02-19T01:19:24.199Z,18.97
2023-02-19T01:19:34.163Z,18.96
2023-02-19T01:19:44.178Z,18.94
2023-02-19T01:19:54.157Z,18.94
2023-02-19T01:20:04.191Z,18.94
2023-02-19T01:20:14.159Z,18.94
2023-02-19T01:20:24.191Z,18.97
2023-02-19T01:20:34.175Z,18.96
2023-02-19T01:20:44.189Z,18.97
2023-02-19T01:20:54.151Z,18.94
2023-02-19T01:21:04.167Z,18.96
2023-02-19T01:21:14.151Z,18.94
2023-02-19T01:21:24.168Z,18.96
2023-02-19T01:21:34.152Z,18.94
2023-02-19T01:21:44.182Z,18.96
2023-02-19T01:21:54.150Z,18.97
2023-02-19T01:22:04.161Z,18.94
2023-02-19T01:22:14.148Z,18.96
2023-02-19T01:22:24.176Z,18.97
2023-02-19T01:22:34.143Z,18.96
2023-02-19T01:22:44.169Z,18.94
2023-02-19T01:22:54.155Z,18.94
2023-02-19T01:23:04.153Z,18.94
2023-02-19T01:23:14.138Z,18.99
2023-02-19T01:23:24.175Z,18.97
2023-02-19T01:23:34.135Z,18.94
2023-02-19T01:23:44.181Z,18.96
2023-02-19T01:23:54.141Z,18.93
2023-02-19T01:24:04.166Z,18.93
2023-02-19T01:24:14.132Z,18.96
2023-02-19T01:24:24.146Z,18.97
2023-02-19T01:24:34.130Z,18.96
2023-02-19T01:24:44.163Z,18.94
2023-02-19T01:24:54.129Z,18.96
2023-02-19T01:25:04.158Z,18.97
2023-02-19T01:25:14.127Z,18.97
2023-02-19T01:25:24.159Z,18.93
2023-02-19T01:25:34.120Z,18.94
2023-02-19T01:25:44.138Z,18.93
2023-02-19T01:25:54.119Z,18.94
2023-02-19T01:26:04.150Z,18.94
2023-02-19T01:26:14.120Z,18.93
2023-02-19T01:26:24.132Z,18.93
2023-02-19T01:26:44.147Z,18.93
2023-02-19T01:26:54.113Z,18.93
2023-02-19T01:27:04.152Z,18.93
2023-02-19T01:27:14.111Z,18.93
2023-02-19T01:27:24.141Z,18.93
2023-02-19T01:27:34.120Z,18.96
2023-02-19T01:27:44.140Z,18.94
2023-02-19T01:27:54.106Z,18.94
2023-02-19T01:28:04.126Z,18.96
2023-02-19T01:28:14.111Z,18.94
2023-02-19T01:28:24.137Z,18.93
2023-02-19T01:28:34.124Z,18.94
2023-02-19T01:28:44.144Z,18.94
2023-02-19T01:28:54.116Z,18.96
2023-02-19T01:29:04.113Z,18.93
2023-02-19T01:29:14.103Z,18.94
2023-02-19T01:29:24.114Z,18.91
2023-02-19T01:29:34.093Z,18.94
2023-02-19T01:29:44.126Z,18.94
2023-02-19T01:29:54.090Z,18.94
2023-02-19T01:30:04.205Z,18.93
2023-02-19T01:30:14.173Z,18.91
2023-02-19T01:30:24.148Z,18.94
2023-02-19T01:30:34.199Z,18.91
2023-02-19T01:30:44.103Z,18.96
2023-02-19T01:30:54.102Z,18.93
2023-02-19T01:31:04.199Z,18.91
2023-02-19T01:31:14.494Z,18.93
2023-02-19T01:31:24.297Z,18.93
2023-02-19T01:31:34.188Z,18.93
2023-02-19T01:31:44.194Z,18.94
2023-02-19T01:31:54.226Z,18.96
2023-02-19T01:32:04.282Z,18.93
2023-02-19T01:32:14.108Z,18.93
2023-02-19T01:32:24.147Z,18.97
2023-02-19T01:32:34.073Z,18.94
2023-02-19T01:32:44.098Z,18.94
2023-02-19T01:32:54.076Z,18.91
2023-02-19T01:33:04.101Z,18.94
2023-02-19T01:33:14.072Z,18.94
2023-02-19T01:33:24.101Z,18.94
2023-02-19T01:33:34.087Z,18.94
2023-02-19T01:33:44.100Z,18.94
2023-02-19T01:33:54.068Z,18.94
2023-02-19T01:34:04.162Z,18.93
2023-02-19T01:34:14.067Z,18.94
2023-02-19T01:34:24.093Z,18.96
2023-02-19T01:34:34.078Z,18.94
2023-02-19T01:34:44.096Z,18.96
2023-02-19T01:34:54.062Z,18.96
2023-02-19T01:35:04.086Z,18.94
2023-02-19T01:35:14.072Z,18.94
2023-02-19T01:35:24.072Z,18.97
2023-02-19T01:35:34.062Z,18.96
2023-02-19T01:35:44.081Z,18.97
2023-02-19T01:35:54.050Z,18.96
2023-02-19T01:36:04.079Z,18.94
2023-02-19T01:36:14.050Z,18.96
2023-02-19T01:36:24.072Z,18.96
2023-02-19T01:36:34.060Z,18.93
2023-02-19T01:36:44.081Z,18.96
2023-02-19T01:36:54.054Z,18.96
2023-02-19T01:37:04.064Z,18.96
2023-02-19T01:37:14.040Z,18.97
2023-02-19T01:37:24.063Z,18.96
2023-02-19T01:37:34.044Z,18.96
2023-02-19T01:37:44.070Z,18.94
2023-02-19T01:37:54.045Z,18.93
2023-02-19T01:38:04.054Z,18.96
2023-02-19T01:38:14.036Z,18.94
2023-02-19T01:38:24.050Z,18.94
2023-02-19T01:38:34.042Z,18.96
2023-02-19T01:38:44.068Z,18.94
2023-02-19T01:38:54.038Z,18.93
2023-02-19T01:39:04.249Z,18.91
2023-02-19T01:39:14.030Z,18.94
2023-02-19T01:39:24.068Z,18.96
2023-02-19T01:39:34.030Z,18.94
2023-02-19T01:39:44.040Z,18.93
2023-02-19T01:39:54.028Z,18.93
2023-02-19T01:40:04.057Z,18.94
2023-02-19T01:40:14.022Z,18.94
2023-02-19T01:40:24.038Z,18.93
2023-02-19T01:40:34.019Z,18.93
2023-02-19T01:40:44.034Z,18.93
2023-02-19T01:40:54.017Z,18.96
2023-02-19T01:41:04.043Z,18.93
2023-02-19T01:41:14.015Z,18.96
2023-02-19T01:41:24.067Z,18.93
2023-02-19T01:41:34.013Z,18.97
2023-02-19T01:41:44.030Z,18.93
2023-02-19T01:41:54.014Z,18.93
2023-02-19T01:42:04.037Z,18.94
2023-02-19T01:42:14.010Z,18.96
2023-02-19T01:42:24.026Z,18.96
2023-02-19T01:42:34.007Z,18.96
2023-02-19T01:42:44.046Z,18.93
2023-02-19T01:42:54.010Z,18.96
2023-02-19T01:43:04.020Z,18.96
2023-02-19T01:43:13.999Z,18.97
2023-02-19T01:43:24.017Z,18.96
2023-02-19T01:43:34.001Z,18.94
2023-02-19T01:43:44.018Z,18.94
2023-02-19T01:43:53.998Z,18.96
2023-02-19T01:44:04.052Z,18.96
2023-02-19T01:44:14.005Z,18.96
2023-02-19T01:44:24.013Z,18.97
2023-02-19T01:44:34.029Z,18.96
2023-02-19T01:44:43.990Z,18.94
2023-02-19T01:44:54.009Z,18.96
2023-02-19T01:45:03.989Z,18.96
2023-02-19T01:45:14.006Z,18.94
2023-02-19T01:45:23.988Z,18.94
2023-02-19T01:45:34.005Z,18.97
2023-02-19T01:45:43.987Z,18.94
2023-02-19T01:45:54.019Z,18.94
2023-02-19T01:46:04.354Z,18.99
2023-02-19T01:46:14.031Z,18.96
2023-02-19T01:46:23.992Z,18.96
2023-02-19T01:46:34.076Z,18.97
2023-02-19T01:46:44.036Z,18.94
2023-02-19T01:46:54.050Z,18.96
2023-02-19T01:47:03.980Z,18.96
2023-02-19T01:47:13.994Z,18.94
2023-02-19T01:47:23.974Z,18.94
2023-02-19T01:47:34.009Z,18.96
2023-02-19T01:47:43.972Z,18.93
2023-02-19T01:47:54.006Z,18.97
2023-02-19T01:48:03.968Z,18.97
2023-02-19T01:48:13.985Z,18.93
2023-02-19T01:48:23.976Z,18.93
2023-02-19T01:48:33.993Z,18.93
2023-02-19T01:48:43.972Z,18.93
2023-02-19T01:48:53.981Z,18.91
2023-02-19T01:49:03.968Z,18.93
2023-02-19T01:49:14.002Z,18.93
2023-02-19T01:49:23.963Z,18.94
2023-02-19T01:49:33.997Z,18.94
2023-02-19T01:49:43.960Z,18.96
2023-02-19T01:49:53.972Z,18.99
2023-02-19T01:50:03.956Z,18.91
2023-02-19T01:50:13.970Z,18.91
2023-02-19T01:50:23.962Z,18.94
2023-02-19T01:50:33.985Z,18.93
2023-02-19T01:50:43.953Z,18.93
2023-02-19T01:50:53.987Z,18.94
2023-02-19T01:51:03.975Z,18.99
2023-02-19T01:51:13.966Z,18.94
2023-02-19T01:51:23.951Z,18.91
2023-02-19T01:51:33.964Z,18.93
2023-02-19T01:51:43.945Z,18.94
2023-02-19T01:51:53.976Z,18.91
2023-02-19T01:52:03.942Z,18.94
2023-02-19T01:52:13.978Z,18.91
2023-02-19T01:52:23.942Z,18.91
2023-02-19T01:52:33.975Z,18.93
2023-02-19T01:52:43.944Z,18.91
2023-02-19T01:52:53.955Z,18.96
2023-02-19T01:53:03.936Z,18.93
2023-02-19T01:53:13.972Z,18.93
2023-02-19T01:53:23.945Z,18.91
2023-02-19T01:53:33.966Z,18.93
2023-02-19T01:53:43.957Z,18.91
2023-02-19T01:53:53.951Z,18.91
2023-02-19T01:54:03.935Z,18.93
2023-02-19T01:54:13.955Z,18.93
2023-02-19T01:54:23.926Z,18.94
2023-02-19T01:54:33.960Z,18.91
2023-02-19T01:54:43.924Z,18.96
2023-02-19T01:54:53.962Z,18.93
2023-02-19T01:55:03.940Z,18.94
2023-02-19T01:55:13.960Z,18.97
2023-02-19T01:55:23.925Z,18.93
2023-02-19T01:55:33.951Z,18.93
2023-02-19T01:55:43.919Z,18.91
2023-02-19T01:55:53.932Z,18.93
2023-02-19T01:56:03.930Z,18.91
2023-02-19T01:56:13.969Z,18.90
2023-02-19T01:56:24.034Z,18.91
2023-02-19T01:56:33.933Z,18.90
2023-02-19T01:56:43.945Z,18.93
2023-02-19T01:56:53.943Z,18.93
2023-02-19T01:57:03.907Z,18.91
2023-02-19T01:57:13.931Z,18.94
2023-02-19T01:57:23.915Z,18.91
2023-02-19T01:57:33.952Z,18.89
2023-02-19T01:57:43.908Z,18.91
2023-02-19T01:57:53.921Z,18.91
2023-02-19T01:58:03.905Z,18.90
2023-02-19T01:58:14.029Z,18.93
2023-02-19T01:58:23.900Z,18.90
2023-02-19T01:58:33.924Z,18.91
2023-02-19T01:58:43.899Z,18.94
2023-02-19T01:58:53.912Z,18.93
2023-02-19T01:59:03.893Z,18.93
2023-02-19T01:59:13.911Z,18.89
2023-02-19T01:59:23.897Z,18.93
2023-02-19T01:59:33.924Z,18.90
2023-02-19T01:59:43.892Z,18.89
2023-02-19T01:59:53.907Z,18.93
2023-02-19T02:00:03.904Z,18.91
2023-02-19T02:00:13.919Z,18.90
2023-02-19T02:00:23.886Z,18.90
2023-02-19T02:00:33.945Z,18.91
2023-02-19T02:00:43.943Z,18.89
2023-02-19T02:00:53.913Z,18.91
2023-02-19T02:01:03.942Z,18.91
2023-02-19T02:01:14.206Z,18.89
2023-02-19T02:01:23.900Z,18.89
2023-02-19T02:01:33.941Z,18.89
2023-02-19T02:01:43.930Z,18.89
2023-02-19T02:01:53.936Z,18.87
2023-02-19T02:02:03.887Z,18.93
2023-02-19T02:02:13.965Z,18.90
2023-02-19T02:02:23.874Z,18.87
2023-02-19T02:02:33.893Z,18.89
2023-02-19T02:02:43.881Z,18.89
2023-02-19T02:02:53.894Z,18.90
2023-02-19T02:03:03.872Z,18.90
2023-02-19T02:03:13.886Z,18.91
2023-02-19T02:03:23.867Z,18.90
2023-02-19T02:03:33.884Z,18.87
2023-02-19T02:03:43.889Z,18.89
2023-02-19T02:03:53.893Z,18.91
2023-02-19T02:04:03.866Z,18.93
2023-02-19T02:04:13.874Z,18.90
2023-02-19T02:04:23.861Z,18.90
2023-02-19T02:04:33.881Z,18.90
2023-02-19T02:04:43.857Z,18.93
2023-02-19T02:04:53.887Z,18.90
2023-02-19T02:05:13.886Z,18.89
2023-02-19T02:05:23.852Z,18.90
2023-02-19T02:05:33.884Z,18.89
2023-02-19T02:05:43.853Z,18.91
2023-02-19T02:05:53.871Z,18.90
2023-02-19T02:06:03.847Z,18.93
2023-02-19T02:06:13.896Z,18.91
2023-02-19T02:06:23.856Z,18.94
2023-02-19T02:06:33.862Z,18.91
2023-02-19T02:06:43.863Z,18.89
2023-02-19T02:06:53.865Z,18.89
2023-02-19T02:07:03.842Z,18.93
2023-02-19T02:07:13.870Z,18.91
2023-02-19T02:07:23.837Z,18.90
2023-02-19T02:07:33.852Z,18.91
2023-02-19T02:07:43.837Z,18.91
2023-02-19T02:07:53.851Z,18.91
2023-02-19T02:08:03.843Z,18.94
2023-02-19T02:08:13.855Z,18.91
2023-02-19T02:08:23.843Z,18.91
2023-02-19T02:08:33.872Z,18.90
2023-02-19T02:08:43.846Z,18.89
2023-02-19T02:08:53.872Z,18.90
2023-02-19T02:09:03.828Z,18.91
2023-02-19T02:09:13.882Z,18.90
2023-02-19T02:09:23.836Z,18.91
2023-02-19T02:09:33.860Z,18.91
2023-02-19T02:09:43.833Z,18.90
2023-02-19T02:09:53.842Z,18.89
2023-02-19T02:10:03.842Z,18.90
2023-02-19T02:10:13.852Z,18.90
2023-02-19T02:10:23.831Z,18.89
2023-02-19T02:10:33.834Z,18.87
2023-02-19T02:10:43.813Z,18.87
2023-02-19T02:10:53.866Z,18.87
2023-02-19T02:11:03.836Z,18.91
2023-02-19T02:11:13.837Z,18.91
2023-02-19T02:11:23.831Z,18.90
2023-02-19T02:11:33.858Z,18.87
2023-02-19T02:11:43.820Z,18.86
2023-02-19T02:11:53.807Z,18.87
2023-02-19T02:12:03.807Z,18.90
2023-02-19T02:12:13.842Z,18.87
2023-02-19T02:12:23.806Z,18.87
2023-02-19T02:12:33.838Z,18.87
2023-02-19T02:12:43.801Z,18.89